Time;durP1;ratioP1;P1;durP2;ratioP2;P2;SDS_P1;SDS_P2;PMS_P1;PMS_P2;Temp;Humidity;BMP_temperature;BMP_pressure;BME280_temperature;BME280_humidity;BME280_pressure;Samples;Min_cycle;Max_cycle;Signal;HPM_P1;HPM_P2
2023/01/31 00:00:26;;;;;;;28.50;3.05;;;;;;;;;;5109071;28;20036;-63
2023/01/31 00:02:53;;;;;;;23.88;2.65;;;;;;;;;;5110866;27;20413;-63
2023/01/31 00:05:21;;;;;;;24.63;3.15;;;;;;;;;;5106078;28;20050;-63
2023/01/31 00:07:48;;;;;;;30.05;2.83;;;;;;;;;;5113490;27;20044;-63
2023/01/31 00:10:17;;;;;;;21.73;2.47;;;;;;;;;;5107297;28;20058;-63
2023/01/31 00:12:44;;;;;;;30.27;2.72;;;;;;;;;;5108604;28;20075;-63
2023/01/31 00:15:15;;;;;;;30.58;3.72;;;;;;;;;;5117636;28;20497;-64
2023/01/31 00:17:42;;;;;;;24.85;2.55;;;;;;;;;;5113970;27;20043;-65
2023/01/31 00:20:10;;;;;;;17.80;2.78;;;;;;;;;;5105926;28;20417;-63
2023/01/31 00:22:37;;;;;;;25.77;2.85;;;;;;;;;;5105940;28;20040;-63
2023/01/31 00:25:05;;;;;;;37.00;3.55;;;;;;;;;;5109289;28;20047;-62
2023/01/31 00:27:33;;;;;;;25.83;4.03;;;;;;;;;;5116428;28;20437;-67
2023/01/31 00:30:01;;;;;;;31.92;3.75;;;;;;;;;;5109745;28;20470;-64
2023/01/31 00:32:28;;;;;;;43.65;3.70;;;;;;;;;;5107060;28;20047;-68
2023/01/31 00:34:55;;;;;;;29.05;3.75;;;;;;;;;;5109319;28;20513;-63
2023/01/31 00:37:23;;;;;;;30.88;2.95;;;;;;;;;;5107909;28;20060;-63
2023/01/31 00:39:50;;;;;;;30.85;3.28;;;;;;;;;;5109281;28;20518;-62
2023/01/31 00:42:17;;;;;;;26.23;2.17;;;;;;;;;;5102670;28;20055;-65
2023/01/31 00:44:46;;;;;;;23.60;3.58;;;;;;;;;;5105433;28;20039;-63
2023/01/31 00:47:13;;;;;;;29.77;3.40;;;;;;;;;;5109042;28;20488;-63
2023/01/31 00:49:40;;;;;;;30.60;2.80;;;;;;;;;;5106104;28;20047;-63
2023/01/31 00:52:07;;;;;;;25.45;2.42;;;;;;;;;;5109207;28;20521;-63
2023/01/31 00:54:34;;;;;;;22.90;3.33;;;;;;;;;;5110772;28;20051;-63
2023/01/31 00:57:02;;;;;;;26.67;2.80;;;;;;;;;;5106252;27;20509;-64
2023/01/31 00:59:29;;;;;;;31.23;2.95;;;;;;;;;;5107622;28;20044;-63
2023/01/31 01:01:57;;;;;;;24.23;2.83;;;;;;;;;;5104832;28;20055;-68
2023/01/31 01:04:25;;;;;;;31.13;3.85;;;;;;;;;;5107320;28;20047;-63
2023/01/31 01:06:52;;;;;;;24.52;2.33;;;;;;;;;;5112985;28;21513;-64
2023/01/31 01:09:21;;;;;;;35.58;3.47;;;;;;;;;;5115668;27;20047;-63
2023/01/31 01:11:49;;;;;;;39.40;3.70;;;;;;;;;;5110870;28;20048;-63
2023/01/31 01:14:16;;;;;;;29.67;3.33;;;;;;;;;;5113274;28;20055;-63
2023/01/31 01:16:43;;;;;;;28.70;2.88;;;;;;;;;;5109840;27;20653;-63
2023/01/31 01:19:13;;;;;;;32.08;3.50;;;;;;;;;;5107985;27;20058;-65
2023/01/31 01:21:40;;;;;;;33.40;3.53;;;;;;;;;;5112882;27;20043;-64
2023/01/31 01:24:08;;;;;;;19.08;2.95;;;;;;;;;;5121024;27;20036;-63
2023/01/31 01:26:36;;;;;;;38.20;6.10;;;;;;;;;;5111391;28;20541;-64
2023/01/31 01:29:03;;;;;;;30.15;3.03;;;;;;;;;;5110266;28;20064;-64
2023/01/31 01:31:31;;;;;;;42.40;4.30;;;;;;;;;;5102030;28;20440;-62
2023/01/31 01:33:59;;;;;;;33.45;3.85;;;;;;;;;;5110103;28;20066;-64
2023/01/31 01:36:28;;;;;;;36.72;3.40;;;;;;;;;;5111711;28;20058;-65
2023/01/31 01:38:55;;;;;;;30.88;3.28;;;;;;;;;;5110816;27;20063;-63
2023/01/31 01:41:22;;;;;;;26.17;3.60;;;;;;;;;;5103760;28;20413;-62
2023/01/31 01:43:50;;;;;;;21.45;3.05;;;;;;;;;;5107367;28;20044;-63
2023/01/31 01:46:19;;;;;;;35.65;3.15;;;;;;;;;;5112715;28;20050;-62
2023/01/31 01:48:48;;;;;;;36.67;3.92;;;;;;;;;;5112633;27;20059;-65
2023/01/31 01:51:18;;;;;;;25.98;3.05;;;;;;;;;;5116589;27;20066;-63
2023/01/31 01:53:48;;;;;;;27.15;2.75;;;;;;;;;;5111256;28;20069;-63
2023/01/31 01:56:18;;;;;;;25.75;3.17;;;;;;;;;;5110495;27;20069;-66
2023/01/31 01:58:47;;;;;;;28.55;3.17;;;;;;;;;;5111050;28;20050;-64
2023/01/31 02:01:15;;;;;;;24.77;2.50;;;;;;;;;;5101318;27;20044;-63
2023/01/31 02:03:43;;;;;;;21.27;2.38;;;;;;;;;;5111991;27;20044;-63
2023/01/31 02:06:11;;;;;;;25.92;2.75;;;;;;;;;;5111105;27;20055;-62
2023/01/31 02:08:40;;;;;;;30.00;2.53;;;;;;;;;;5105698;27;20048;-64
2023/01/31 02:11:11;;;;;;;37.67;4.05;;;;;;;;;;5111486;28;20502;-65
2023/01/31 02:13:39;;;;;;;35.35;3.78;;;;;;;;;;5105852;28;20051;-64
2023/01/31 02:16:07;;;;;;;29.15;3.35;;;;;;;;;;5112845;27;20067;-64
2023/01/31 02:18:34;;;;;;;27.55;2.78;;;;;;;;;;5110998;27;20051;-63
2023/01/31 02:21:25;;;;;;;21.63;2.42;;;;;;;;;;5110421;28;20050;-65
2023/01/31 02:24:09;;;;;;;32.65;2.78;;;;;;;;;;5064423;27;20511;-64
2023/01/31 02:26:54;;;;;;;29.08;3.25;;;;;;;;;;5105244;27;20067;-64
2023/01/31 02:29:33;;;;;;;26.05;2.78;;;;;;;;;;5100135;27;20550;-63
2023/01/31 02:32:26;;;;;;;26.42;2.95;;;;;;;;;;5111016;27;20055;-62
2023/01/31 02:34:57;;;;;;;35.50;3.25;;;;;;;;;;5114771;27;20048;-63
2023/01/31 02:37:30;;;;;;;19.40;2.20;;;;;;;;;;5109917;28;20514;-64
2023/01/31 02:40:02;;;;;;;20.30;2.47;;;;;;;;;;5111296;27;20051;-63
2023/01/31 02:42:34;;;;;;;22.07;2.30;;;;;;;;;;5108011;28;20048;-63
2023/01/31 02:45:05;;;;;;;27.13;3.22;;;;;;;;;;5108436;28;20120;-64
2023/01/31 02:47:39;;;;;;;37.67;3.72;;;;;;;;;;5104794;28;20031;-64
2023/01/31 02:50:11;;;;;;;23.02;3.20;;;;;;;;;;5110235;28;20071;-64
2023/01/31 02:52:42;;;;;;;27.08;3.28;;;;;;;;;;5111326;27;20051;-64
2023/01/31 02:57:59;;;;;;;29.80;4.40;;;;;;;;;;5105342;27;20051;-63
2023/01/31 03:00:27;;;;;;;35.25;5.10;;;;;;;;;;5102184;28;20052;-62
2023/01/31 03:02:56;;;;;;;37.65;4.25;;;;;;;;;;5107551;27;20055;-63
2023/01/31 03:05:23;;;;;;;43.67;4.72;;;;;;;;;;5099848;28;20056;-63
2023/01/31 03:07:52;;;;;;;39.70;4.63;;;;;;;;;;5113535;27;20050;-64
2023/01/31 03:10:28;;;;;;;40.45;4.25;;;;;;;;;;5102522;27;20047;-64
2023/01/31 03:13:01;;;;;;;45.30;5.38;;;;;;;;;;5108825;27;20048;-63
2023/01/31 03:18:21;;;;;;;43.40;4.63;;;;;;;;;;5104481;28;20071;-63
2023/01/31 03:20:53;;;;;;;41.85;4.85;;;;;;;;;;5104787;28;20050;-63
2023/01/31 03:23:21;;;;;;;37.60;3.80;;;;;;;;;;5099521;28;20087;-63
2023/01/31 03:25:50;;;;;;;40.72;5.40;;;;;;;;;;5107487;27;20051;-65
2023/01/31 03:28:18;;;;;;;43.08;4.70;;;;;;;;;;5110196;28;20054;-63
2023/01/31 03:30:48;;;;;;;41.63;5.47;;;;;;;;;;5111448;27;20048;-63
2023/01/31 03:33:16;;;;;;;41.90;4.63;;;;;;;;;;5108011;28;20047;-63
2023/01/31 03:35:47;;;;;;;37.58;5.25;;;;;;;;;;5106456;27;20040;-65
2023/01/31 03:38:17;;;;;;;41.28;4.32;;;;;;;;;;5108784;27;20497;-64
2023/01/31 03:40:48;;;;;;;43.80;4.57;;;;;;;;;;5110447;28;20045;-63
2023/01/31 03:43:21;;;;;;;47.65;5.65;;;;;;;;;;5108237;28;20055;-63
2023/01/31 03:45:50;;;;;;;39.72;5.38;;;;;;;;;;5109156;28;20493;-64
2023/01/31 03:48:21;;;;;;;36.83;4.80;;;;;;;;;;5109825;28;20413;-63
2023/01/31 03:50:54;;;;;;;46.13;4.78;;;;;;;;;;5104962;28;20060;-64
2023/01/31 03:53:23;;;;;;;45.60;5.60;;;;;;;;;;5108299;28;20124;-64
2023/01/31 03:55:52;;;;;;;44.25;4.22;;;;;;;;;;5106999;28;20410;-63
2023/01/31 03:58:20;;;;;;;39.42;4.30;;;;;;;;;;5110816;28;20071;-64
2023/01/31 04:00:49;;;;;;;39.10;4.30;;;;;;;;;;5108263;28;20486;-65
2023/01/31 04:03:18;;;;;;;39.67;3.95;;;;;;;;;;5108665;28;20136;-62
2023/01/31 04:05:45;;;;;;;46.38;4.93;;;;;;;;;;5101052;28;20059;-63
2023/01/31 04:08:14;;;;;;;45.92;5.30;;;;;;;;;;5110173;27;20044;-64
2023/01/31 04:10:42;;;;;;;41.78;4.72;;;;;;;;;;5111455;28;20048;-64
2023/01/31 04:13:09;;;;;;;36.78;4.57;;;;;;;;;;5109243;28;21052;-63
2023/01/31 04:15:36;;;;;;;35.25;4.93;;;;;;;;;;5109018;28;20043;-64
2023/01/31 04:18:03;;;;;;;47.50;5.50;;;;;;;;;;5105578;28;20047;-65
2023/01/31 04:20:30;;;;;;;38.95;4.55;;;;;;;;;;5109023;28;20051;-64
2023/01/31 04:22:58;;;;;;;36.13;4.90;;;;;;;;;;5107506;28;20393;-64
2023/01/31 04:25:27;;;;;;;46.28;4.88;;;;;;;;;;5110565;28;20451;-63
2023/01/31 04:27:54;;;;;;;38.15;4.70;;;;;;;;;;5108070;28;20055;-63
2023/01/31 04:30:21;;;;;;;33.88;4.57;;;;;;;;;;5109064;28;20048;-65
2023/01/31 04:32:49;;;;;;;47.10;5.53;;;;;;;;;;5106643;28;20047;-64
2023/01/31 04:35:16;;;;;;;40.72;5.82;;;;;;;;;;5110309;28;20051;-63
2023/01/31 04:37:43;;;;;;;37.67;5.35;;;;;;;;;;5109470;28;20047;-65
2023/01/31 04:40:12;;;;;;;41.80;4.65;;;;;;;;;;5111600;27;20062;-63
2023/01/31 04:42:41;;;;;;;38.63;4.95;;;;;;;;;;5108993;27;20122;-66
2023/01/31 04:45:09;;;;;;;28.27;4.18;;;;;;;;;;5116668;27;20059;-63
2023/01/31 04:47:36;;;;;;;36.83;4.70;;;;;;;;;;5106101;27;20067;-63
2023/01/31 04:50:04;;;;;;;30.00;4.80;;;;;;;;;;5105291;28;20054;-64
2023/01/31 04:52:31;;;;;;;38.90;4.72;;;;;;;;;;5108271;28;20048;-63
2023/01/31 04:54:58;;;;;;;34.45;4.60;;;;;;;;;;5109806;27;20066;-63
2023/01/31 04:57:25;;;;;;;49.50;6.25;;;;;;;;;;5112603;27;20078;-66
2023/01/31 04:59:54;;;;;;;26.83;4.97;;;;;;;;;;5108115;27;20048;-66
2023/01/31 05:02:22;;;;;;;41.85;5.30;;;;;;;;;;5108410;27;20044;-64
2023/01/31 05:04:49;;;;;;;44.55;5.07;;;;;;;;;;5114922;27;20050;-65
2023/01/31 05:07:16;;;;;;;36.90;5.18;;;;;;;;;;5107624;27;20044;-63
2023/01/31 05:09:44;;;;;;;37.22;4.72;;;;;;;;;;5107715;27;20048;-63
2023/01/31 05:12:11;;;;;;;42.78;4.38;;;;;;;;;;5113015;27;20063;-64
2023/01/31 05:14:38;;;;;;;32.55;3.90;;;;;;;;;;5112046;27;20055;-64
2023/01/31 05:17:07;;;;;;;38.70;4.72;;;;;;;;;;5113137;27;20066;-63
2023/01/31 05:19:34;;;;;;;37.58;3.72;;;;;;;;;;5111402;28;20722;-63
2023/01/31 05:22:01;;;;;;;42.95;5.78;;;;;;;;;;5112966;28;20036;-64
2023/01/31 05:24:30;;;;;;;39.72;4.60;;;;;;;;;;5110113;27;20052;-64
2023/01/31 05:26:58;;;;;;;31.13;4.88;;;;;;;;;;5105968;27;20055;-63
2023/01/31 05:29:25;;;;;;;41.50;5.10;;;;;;;;;;5111394;28;20048;-63
2023/01/31 05:31:53;;;;;;;39.58;4.65;;;;;;;;;;5109960;28;20071;-62
2023/01/31 05:34:21;;;;;;;29.45;4.68;;;;;;;;;;5110785;27;20060;-63
2023/01/31 05:36:49;;;;;;;34.90;4.32;;;;;;;;;;5105138;28;20047;-65
2023/01/31 05:39:16;;;;;;;37.47;5.32;;;;;;;;;;5110273;27;20084;-68
2023/01/31 05:41:43;;;;;;;38.45;4.68;;;;;;;;;;5109748;28;20054;-64
2023/01/31 05:44:11;;;;;;;44.38;5.13;;;;;;;;;;5111070;28;20048;-64
2023/01/31 05:46:38;;;;;;;36.53;5.35;;;;;;;;;;5111020;28;20054;-63
2023/01/31 05:49:06;;;;;;;36.10;4.95;;;;;;;;;;5106613;28;20044;-64
2023/01/31 05:51:34;;;;;;;32.85;5.38;;;;;;;;;;5100652;27;20044;-63
2023/01/31 05:54:01;;;;;;;30.45;4.30;;;;;;;;;;5111400;28;20056;-63
2023/01/31 05:56:29;;;;;;;35.85;5.13;;;;;;;;;;5110458;27;20043;-63
2023/01/31 05:58:56;;;;;;;34.40;5.65;;;;;;;;;;5108636;27;20514;-63
2023/01/31 06:01:24;;;;;;;38.13;4.40;;;;;;;;;;5113875;27;20039;-63
2023/01/31 06:03:51;;;;;;;32.22;4.63;;;;;;;;;;5114991;27;20131;-65
2023/01/31 06:06:19;;;;;;;37.28;4.72;;;;;;;;;;5111372;27;20055;-64
2023/01/31 06:08:48;;;;;;;35.45;5.25;;;;;;;;;;5107625;28;20040;-63
2023/01/31 06:11:17;;;;;;;31.83;4.03;;;;;;;;;;5110752;28;20051;-63
2023/01/31 06:13:44;;;;;;;36.50;4.32;;;;;;;;;;5105550;27;20047;-63
2023/01/31 06:16:12;;;;;;;34.17;4.53;;;;;;;;;;5103750;28;20410;-63
2023/01/31 06:18:39;;;;;;;34.55;4.00;;;;;;;;;;5109253;27;20406;-63
2023/01/31 06:21:06;;;;;;;35.25;4.22;;;;;;;;;;5101251;27;20055;-63
2023/01/31 06:23:34;;;;;;;35.50;4.07;;;;;;;;;;5111836;28;20406;-64
2023/01/31 06:26:02;;;;;;;30.35;3.70;;;;;;;;;;5111014;27;20519;-63
2023/01/31 06:28:29;;;;;;;33.00;4.50;;;;;;;;;;5107579;28;20044;-64
2023/01/31 06:30:57;;;;;;;27.13;3.67;;;;;;;;;;5108028;28;20080;-63
2023/01/31 06:33:24;;;;;;;28.85;3.88;;;;;;;;;;5111212;28;20048;-64
2023/01/31 06:35:51;;;;;;;27.45;3.70;;;;;;;;;;5108837;27;20562;-63
2023/01/31 06:38:18;;;;;;;29.55;2.95;;;;;;;;;;5109722;28;20039;-63
2023/01/31 06:40:46;;;;;;;34.83;3.22;;;;;;;;;;5111343;27;20051;-63
2023/01/31 06:43:14;;;;;;;32.17;3.75;;;;;;;;;;5112107;27;20070;-66
2023/01/31 06:45:43;;;;;;;24.92;3.25;;;;;;;;;;5109880;27;20039;-68
2023/01/31 06:48:10;;;;;;;21.75;2.70;;;;;;;;;;5106231;27;20039;-64
2023/01/31 06:50:38;;;;;;;25.77;3.00;;;;;;;;;;5117095;27;20047;-67
2023/01/31 06:53:05;;;;;;;31.15;3.40;;;;;;;;;;5115820;27;20051;-63
2023/01/31 06:55:33;;;;;;;28.10;3.65;;;;;;;;;;5100791;27;20040;-64
2023/01/31 06:58:00;;;;;;;30.90;3.20;;;;;;;;;;5113297;27;20077;-62
2023/01/31 07:00:28;;;;;;;25.95;3.53;;;;;;;;;;5110474;27;20051;-63
2023/01/31 07:02:56;;;;;;;33.95;3.70;;;;;;;;;;5114758;27;20090;-65
2023/01/31 07:05:23;;;;;;;29.30;3.67;;;;;;;;;;5116384;27;20094;-66
2023/01/31 07:07:50;;;;;;;31.20;3.13;;;;;;;;;;5116701;27;20108;-64
2023/01/31 07:10:18;;;;;;;25.40;3.15;;;;;;;;;;5113271;27;20046;-64
2023/01/31 07:12:45;;;;;;;21.08;2.92;;;;;;;;;;5104301;28;20048;-63
2023/01/31 07:15:12;;;;;;;32.60;3.33;;;;;;;;;;5110650;28;20054;-63
2023/01/31 07:17:42;;;;;;;31.85;3.70;;;;;;;;;;5109286;27;20051;-64
2023/01/31 07:20:10;;;;;;;31.27;4.50;;;;;;;;;;5109553;28;20047;-63
2023/01/31 07:22:38;;;;;;;39.97;4.05;;;;;;;;;;5111022;28;20513;-63
2023/01/31 07:25:05;;;;;;;30.20;3.70;;;;;;;;;;5108960;28;20058;-63
2023/01/31 07:27:32;;;;;;;28.63;3.17;;;;;;;;;;5102238;28;20478;-63
2023/01/31 07:30:00;;;;;;;23.35;3.20;;;;;;;;;;5119798;27;20066;-65
2023/01/31 07:32:29;;;;;;;33.78;4.13;;;;;;;;;;5106329;27;20051;-68
2023/01/31 07:34:58;;;;;;;32.58;3.83;;;;;;;;;;5118290;27;20459;-63
2023/01/31 07:37:25;;;;;;;36.95;4.57;;;;;;;;;;5111769;27;20048;-64
2023/01/31 07:39:52;;;;;;;39.13;5.05;;;;;;;;;;5115741;27;20067;-63
2023/01/31 07:42:20;;;;;;;39.40;4.38;;;;;;;;;;5114122;27;20047;-63
2023/01/31 07:44:47;;;;;;;33.33;4.20;;;;;;;;;;5112449;27;20048;-64
2023/01/31 07:47:14;;;;;;;45.10;4.75;;;;;;;;;;5109533;27;20487;-63
2023/01/31 07:49:41;;;;;;;29.08;4.35;;;;;;;;;;5109288;28;20047;-65
2023/01/31 07:52:10;;;;;;;38.00;3.53;;;;;;;;;;5109831;28;20500;-63
2023/01/31 07:54:37;;;;;;;43.38;3.97;;;;;;;;;;5112000;27;20054;-66
2023/01/31 07:57:04;;;;;;;33.03;3.67;;;;;;;;;;5096117;28;20569;-65
2023/01/31 07:59:32;;;;;;;32.40;3.88;;;;;;;;;;5108471;28;20043;-63
2023/01/31 08:04:44;;;;;;;33.30;3.20;;;;;;;;;;5103232;28;20044;-65
2023/01/31 08:07:13;;;;;;;42.45;4.90;;;;;;;;;;5103799;28;20051;-66
2023/01/31 08:09:42;;;;;;;40.47;4.30;;;;;;;;;;5112651;28;20051;-65
2023/01/31 08:12:09;;;;;;;42.10;4.20;;;;;;;;;;5106654;27;20044;-64
2023/01/31 08:14:36;;;;;;;39.90;4.63;;;;;;;;;;5111284;27;20074;-65
2023/01/31 08:17:05;;;;;;;40.95;4.25;;;;;;;;;;5111389;27;20043;-63
2023/01/31 08:19:33;;;;;;;32.45;3.70;;;;;;;;;;5112699;27;20154;-64
2023/01/31 08:22:00;;;;;;;34.80;4.38;;;;;;;;;;5110566;27;20048;-64
2023/01/31 08:24:29;;;;;;;39.75;4.25;;;;;;;;;;5111499;27;20047;-68
2023/01/31 08:26:56;;;;;;;42.10;4.63;;;;;;;;;;5106551;27;20527;-63
2023/01/31 08:29:24;;;;;;;40.80;5.20;;;;;;;;;;5108880;27;20043;-64
2023/01/31 08:31:51;;;;;;;35.83;5.35;;;;;;;;;;5116340;27;20047;-63
2023/01/31 08:34:19;;;;;;;48.85;7.63;;;;;;;;;;5116422;27;20097;-63
2023/01/31 08:36:46;;;;;;;35.50;4.07;;;;;;;;;;5115261;27;20068;-64
2023/01/31 08:39:13;;;;;;;37.97;5.13;;;;;;;;;;5112589;27;20062;-64
2023/01/31 08:41:42;;;;;;;47.28;4.82;;;;;;;;;;5111904;27;20036;-64
2023/01/31 08:44:09;;;;;;;43.50;5.10;;;;;;;;;;5113567;27;20073;-66
2023/01/31 08:46:37;;;;;;;41.05;4.45;;;;;;;;;;5109577;27;20496;-65
2023/01/31 08:49:05;;;;;;;43.63;4.43;;;;;;;;;;5112502;27;20056;-66
2023/01/31 08:51:32;;;;;;;56.22;5.22;;;;;;;;;;5111246;27;20401;-65
2023/01/31 08:53:59;;;;;;;38.90;4.47;;;;;;;;;;5109081;27;20058;-68
2023/01/31 08:56:27;;;;;;;50.38;4.50;;;;;;;;;;5107421;27;20048;-66
2023/01/31 08:58:55;;;;;;;47.55;5.38;;;;;;;;;;5111174;27;20510;-67
2023/01/31 09:01:23;;;;;;;53.00;5.70;;;;;;;;;;5106846;27;20040;-64
2023/01/31 09:03:55;;;;;;;32.25;4.53;;;;;;;;;;5104214;27;20042;-65
2023/01/31 09:06:23;;;;;;;58.67;5.28;;;;;;;;;;5113504;27;20062;-68
2023/01/31 09:08:51;;;;;;;43.90;4.53;;;;;;;;;;5108509;27;20387;-66
2023/01/31 09:11:18;;;;;;;37.35;6.50;;;;;;;;;;5107154;27;20129;-65
2023/01/31 09:13:45;;;;;;;45.50;4.72;;;;;;;;;;5115914;27;20104;-64
2023/01/31 09:16:14;;;;;;;59.75;5.85;;;;;;;;;;5112457;27;20055;-64
2023/01/31 09:18:42;;;;;;;51.10;5.47;;;;;;;;;;5116439;27;20055;-64
2023/01/31 09:21:10;;;;;;;62.40;5.50;;;;;;;;;;5110928;27;20055;-67
2023/01/31 09:23:37;;;;;;;56.33;7.07;;;;;;;;;;5110625;27;20126;-65
2023/01/31 09:26:05;;;;;;;51.35;6.13;;;;;;;;;;5107439;27;20071;-65
2023/01/31 09:28:32;;;;;;;42.83;5.05;;;;;;;;;;5108734;27;20047;-65
2023/01/31 09:31:03;;;;;;;53.65;5.53;;;;;;;;;;5105897;27;20059;-67
2023/01/31 09:33:32;;;;;;;44.28;4.63;;;;;;;;;;5110331;27;20126;-66
2023/01/31 09:36:00;;;;;;;40.60;4.78;;;;;;;;;;5106463;27;20079;-66
2023/01/31 09:38:27;;;;;;;46.35;5.95;;;;;;;;;;5110740;27;20047;-69
2023/01/31 09:40:55;;;;;;;35.30;4.68;;;;;;;;;;5115139;27;20051;-65
2023/01/31 09:43:23;;;;;;;49.60;5.93;;;;;;;;;;5111154;27;20044;-65
2023/01/31 09:45:51;;;;;;;54.38;5.35;;;;;;;;;;5106156;27;20437;-64
2023/01/31 09:48:21;;;;;;;44.38;5.43;;;;;;;;;;5109990;27;20094;-66
2023/01/31 09:50:53;;;;;;;35.53;4.90;;;;;;;;;;5106758;27;20510;-69
2023/01/31 09:53:21;;;;;;;32.30;4.20;;;;;;;;;;5111018;27;20108;-66
2023/01/31 09:55:52;;;;;;;53.00;4.72;;;;;;;;;;5109293;27;20047;-65
2023/01/31 09:58:24;;;;;;;47.38;6.45;;;;;;;;;;5114200;27;20418;-65
2023/01/31 10:00:54;;;;;;;37.37;4.20;;;;;;;;;;5105381;28;20065;-66
2023/01/31 10:03:37;;;;;;;47.58;5.28;;;;;;;;;;5108245;27;20059;-65
2023/01/31 10:06:11;;;;;;;40.58;5.03;;;;;;;;;;5109131;27;20058;-67
2023/01/31 10:08:41;;;;;;;44.00;7.18;;;;;;;;;;5110610;27;20100;-66
2023/01/31 10:11:12;;;;;;;40.33;4.10;;;;;;;;;;5107223;27;20047;-65
2023/01/31 10:13:40;;;;;;;38.05;5.20;;;;;;;;;;5111277;27;20055;-65
2023/01/31 10:16:15;;;;;;;35.92;4.45;;;;;;;;;;5113913;27;20055;-65
2023/01/31 10:18:44;;;;;;;41.17;4.68;;;;;;;;;;5112762;27;20077;-70
2023/01/31 10:21:14;;;;;;;31.85;4.15;;;;;;;;;;5110427;27;20054;-66
2023/01/31 10:23:43;;;;;;;38.15;3.97;;;;;;;;;;5116528;27;20039;-65
2023/01/31 10:26:13;;;;;;;47.78;4.10;;;;;;;;;;5109622;27;20058;-65
2023/01/31 10:28:42;;;;;;;49.03;4.95;;;;;;;;;;5117548;27;20137;-65
2023/01/31 10:31:13;;;;;;;40.03;5.68;;;;;;;;;;5105466;27;20056;-68
2023/01/31 10:33:44;;;;;;;36.63;3.85;;;;;;;;;;5107548;27;20077;-65
2023/01/31 10:36:15;;;;;;;30.17;3.72;;;;;;;;;;5098986;28;20047;-65
2023/01/31 10:38:49;;;;;;;31.30;3.95;;;;;;;;;;5102137;27;20762;-68
2023/01/31 10:41:19;;;;;;;44.33;5.07;;;;;;;;;;5108648;27;20069;-66
2023/01/31 10:43:49;;;;;;;28.83;3.90;;;;;;;;;;5100645;27;20467;-68
2023/01/31 10:46:16;;;;;;;33.60;3.60;;;;;;;;;;5104503;27;20055;-66
2023/01/31 10:48:45;;;;;;;36.85;5.22;;;;;;;;;;5108486;27;20055;-65
2023/01/31 10:51:17;;;;;;;37.53;4.45;;;;;;;;;;5109373;27;20540;-65
2023/01/31 10:53:51;;;;;;;40.10;4.85;;;;;;;;;;5110756;27;20500;-67
2023/01/31 10:56:24;;;;;;;31.27;3.70;;;;;;;;;;5105729;27;20087;-65
2023/01/31 10:58:52;;;;;;;37.70;4.15;;;;;;;;;;5109677;27;20482;-65
2023/01/31 11:01:19;;;;;;;31.55;4.03;;;;;;;;;;5102198;27;20062;-67
2023/01/31 11:03:48;;;;;;;41.53;4.68;;;;;;;;;;5102617;27;20043;-65
2023/01/31 11:06:17;;;;;;;35.72;3.28;;;;;;;;;;5103032;27;20047;-69
2023/01/31 11:08:47;;;;;;;33.03;4.80;;;;;;;;;;5107862;27;20055;-66
2023/01/31 11:11:15;;;;;;;30.23;3.55;;;;;;;;;;5103083;27;20047;-65
2023/01/31 11:13:55;;;;;;;31.85;3.47;;;;;;;;;;5112760;27;20130;-66
2023/01/31 11:16:23;;;;;;;39.20;4.32;;;;;;;;;;5110370;27;20524;-67
2023/01/31 11:18:51;;;;;;;31.25;4.95;;;;;;;;;;5106742;27;20182;-66
2023/01/31 11:21:24;;;;;;;36.60;4.82;;;;;;;;;;5109012;27;20044;-65
2023/01/31 11:23:51;;;;;;;29.27;3.92;;;;;;;;;;5121138;27;20406;-65
2023/01/31 11:26:25;;;;;;;29.75;4.38;;;;;;;;;;5113247;27;20043;-65
2023/01/31 11:28:53;;;;;;;39.67;4.28;;;;;;;;;;5107849;27;20498;-66
2023/01/31 11:31:23;;;;;;;30.58;3.72;;;;;;;;;;5111171;27;20059;-65
2023/01/31 11:33:56;;;;;;;31.85;4.43;;;;;;;;;;5114846;27;20099;-66
2023/01/31 11:36:26;;;;;;;34.53;5.20;;;;;;;;;;5115827;27;20051;-65
2023/01/31 11:38:53;;;;;;;38.05;4.85;;;;;;;;;;5114207;27;20421;-65
2023/01/31 11:41:31;;;;;;;27.15;3.72;;;;;;;;;;5112929;27;20054;-66
2023/01/31 11:44:09;;;;;;;37.13;3.65;;;;;;;;;;5108927;28;20048;-65
2023/01/31 11:46:41;;;;;;;30.27;4.00;;;;;;;;;;5109004;28;20486;-65
2023/01/31 11:49:11;;;;;;;43.25;5.05;;;;;;;;;;5108625;28;20047;-65
2023/01/31 11:51:40;;;;;;;27.35;3.92;;;;;;;;;;5105938;27;20616;-66
2023/01/31 11:54:07;;;;;;;38.47;3.85;;;;;;;;;;5102817;28;20079;-66
2023/01/31 11:56:36;;;;;;;24.52;3.28;;;;;;;;;;5102507;28;20075;-67
2023/01/31 11:59:07;;;;;;;27.33;4.28;;;;;;;;;;5101783;28;20050;-68
2023/01/31 12:01:36;;;;;;;25.67;4.65;;;;;;;;;;5102406;28;20055;-65
2023/01/31 12:04:04;;;;;;;36.08;3.95;;;;;;;;;;5106295;28;20047;-65
2023/01/31 12:06:33;;;;;;;32.45;4.75;;;;;;;;;;5103332;28;20047;-66
2023/01/31 12:09:02;;;;;;;25.02;4.18;;;;;;;;;;5104773;27;20047;-65
2023/01/31 12:11:30;;;;;;;37.22;4.18;;;;;;;;;;5105160;28;20070;-65
2023/01/31 12:14:02;;;;;;;31.35;3.90;;;;;;;;;;5107370;28;20071;-65
2023/01/31 12:16:30;;;;;;;33.97;3.78;;;;;;;;;;5106366;28;20044;-66
2023/01/31 12:19:06;;;;;;;35.17;4.28;;;;;;;;;;5107186;28;20062;-66
2023/01/31 12:21:45;;;;;;;26.70;4.30;;;;;;;;;;5107335;28;20048;-65
2023/01/31 12:24:19;;;;;;;31.50;4.68;;;;;;;;;;5106114;28;20044;-65
2023/01/31 12:26:49;;;;;;;26.02;4.18;;;;;;;;;;5105204;28;20040;-65
2023/01/31 12:29:26;;;;;;;26.77;3.92;;;;;;;;;;5114087;28;20061;-65
2023/01/31 12:32:01;;;;;;;28.30;3.70;;;;;;;;;;5104949;28;20064;-66
2023/01/31 12:34:37;;;;;;;36.35;3.63;;;;;;;;;;5109076;28;20055;-65
2023/01/31 12:37:22;;;;;;;33.33;3.83;;;;;;;;;;5099818;28;20405;-68
2023/01/31 12:39:58;;;;;;;33.08;4.72;;;;;;;;;;5098427;28;20413;-64
2023/01/31 12:42:35;;;;;;;24.60;3.95;;;;;;;;;;5104345;28;20350;-67
2023/01/31 12:45:08;;;;;;;28.45;4.65;;;;;;;;;;5106680;28;20406;-69
2023/01/31 12:47:49;;;;;;;31.80;4.45;;;;;;;;;;5098700;28;20055;-66
2023/01/31 12:50:26;;;;;;;27.17;3.60;;;;;;;;;;5102012;28;20048;-66
2023/01/31 12:53:00;;;;;;;37.13;4.00;;;;;;;;;;5103001;28;20048;-67
2023/01/31 12:55:32;;;;;;;33.83;4.20;;;;;;;;;;5104385;28;20756;-65
2023/01/31 12:58:09;;;;;;;39.70;5.20;;;;;;;;;;5104078;27;20052;-65
2023/01/31 13:00:43;;;;;;;23.85;3.05;;;;;;;;;;5105824;27;20048;-66
2023/01/31 13:03:19;;;;;;;25.65;3.47;;;;;;;;;;5110938;27;20135;-66
2023/01/31 13:05:47;;;;;;;26.75;3.45;;;;;;;;;;5107405;27;20047;-69
2023/01/31 13:08:17;;;;;;;25.73;4.88;;;;;;;;;;5111027;27;20474;-65
2023/01/31 13:10:48;;;;;;;26.42;4.53;;;;;;;;;;5108831;27;20120;-65
2023/01/31 13:13:18;;;;;;;25.17;3.72;;;;;;;;;;5106886;27;20051;-64
2023/01/31 13:15:48;;;;;;;32.45;3.42;;;;;;;;;;5105626;27;20135;-65
2023/01/31 13:18:15;;;;;;;25.38;3.40;;;;;;;;;;5107179;28;20043;-67
2023/01/31 13:20:45;;;;;;;31.58;4.25;;;;;;;;;;5104421;27;20059;-65
2023/01/31 13:23:14;;;;;;;30.00;3.72;;;;;;;;;;5103749;27;20496;-65
2023/01/31 13:25:43;;;;;;;28.05;3.35;;;;;;;;;;5106406;27;20486;-65
2023/01/31 13:28:15;;;;;;;33.45;3.90;;;;;;;;;;5102519;28;20417;-65
2023/01/31 13:30:45;;;;;;;24.08;3.63;;;;;;;;;;5105365;27;20109;-66
2023/01/31 13:33:18;;;;;;;19.58;3.38;;;;;;;;;;5106837;27;20448;-65
2023/01/31 13:35:45;;;;;;;;;;;;;;;;;;5101092;27;20115;-66
2023/01/31 13:38:15;;;;;;;24.13;3.80;;;;;;;;;;5102439;28;19920;-66
2023/01/31 13:40:48;;;;;;;26.67;4.38;;;;;;;;;;5108066;27;20044;-66
2023/01/31 13:43:17;;;;;;;25.73;3.77;;;;;;;;;;5113791;27;20142;-65
2023/01/31 13:45:47;;;;;;;28.90;4.07;;;;;;;;;;5108950;27;20307;-65
2023/01/31 13:48:21;;;;;;;24.48;3.35;;;;;;;;;;5119322;27;20458;-66
2023/01/31 13:50:51;;;;;;;26.88;3.35;;;;;;;;;;5103839;28;20047;-65
2023/01/31 13:53:21;;;;;;;29.40;3.58;;;;;;;;;;5110607;27;20042;-64
2023/01/31 13:55:49;;;;;;;30.90;4.22;;;;;;;;;;5114397;27;20118;-66
2023/01/31 13:58:20;;;;;;;25.38;3.78;;;;;;;;;;5112509;27;21454;-64
2023/01/31 14:00:49;;;;;;;30.13;4.05;;;;;;;;;;5115936;27;20522;-65
2023/01/31 14:03:18;;;;;;;28.75;4.25;;;;;;;;;;5105223;27;21222;-64
2023/01/31 14:05:53;;;;;;;26.20;3.47;;;;;;;;;;5106073;27;20616;-65
2023/01/31 14:08:57;;;;;;;27.80;3.88;;;;;;;;;;5116613;27;20046;-65
2023/01/31 14:11:34;;;;;;;28.13;3.58;;;;;;;;;;5115129;27;20063;-63
2023/01/31 14:14:17;;;;;;;35.30;4.40;;;;;;;;;;5104398;27;20051;-65
2023/01/31 14:16:45;;;;;;;29.35;4.43;;;;;;;;;;5106333;27;20482;-64
2023/01/31 14:19:52;;;;;;;35.80;3.97;;;;;;;;;;5105230;27;20056;-74
2023/01/31 14:22:20;;;;;;;28.90;3.45;;;;;;;;;;5112798;27;20043;-71
2023/01/31 14:25:05;;;;;;;29.15;4.63;;;;;;;;;;5111038;27;20048;-73
2023/01/31 14:27:37;;;;;;;35.92;4.80;;;;;;;;;;5102729;27;20501;-68
2023/01/31 14:30:27;;;;;;;48.25;5.20;;;;;;;;;;5101607;28;20142;-73
2023/01/31 14:33:11;;;;;;;37.25;5.38;;;;;;;;;;5103626;28;20401;-74
2023/01/31 14:35:51;;;;;;;30.60;4.32;;;;;;;;;;5098639;27;20043;-73
2023/01/31 14:38:24;;;;;;;42.47;5.25;;;;;;;;;;5109651;27;20052;-74
2023/01/31 14:40:58;;;;;;;44.10;5.60;;;;;;;;;;5107793;28;20502;-72
2023/01/31 14:43:25;;;;;;;;;;;;;;;;;;5104701;27;20047;-73
2023/01/31 14:46:03;;;;;;;60.95;5.50;;;;;;;;;;5114884;27;19931;-74
2023/01/31 14:48:39;;;;;;;40.78;6.75;;;;;;;;;;5100732;27;20043;-74
2023/01/31 14:51:14;;;;;;;32.10;4.93;;;;;;;;;;5108408;27;20509;-73
2023/01/31 14:54:06;;;;;;;36.42;5.80;;;;;;;;;;5111361;27;20382;-72